• Join FlightAware (Why Join?)
  • Login
  • US Flag 
09:39AM EST


 

Airport Tracker/Info


-or-


 

Live Flight TrackerFlight Track Log ✈ EGF4269 ✈ 22-Apr-2013 ✈ KORD - KAZO

Flight Track Log - Related Links

Times and Time Zones

All times are in EDT time to prevent confusion due to time zone crossing. See the EGF4269 flight status page for this flight to view local times or setup timezone preferences in your user account.

Time Position Orientation Groundspeed Altitude Reporting Facility
EDT Latitude Longitude Course Direction KTS MPH feet Rate Location/Type
11:51PM 41.9333 -87.9000 77° East 170 196 2,100  Level Chicago TRACON
11:52PM 41.9333 -87.8167 90° East 238 274 4,400 2,550 Climbing Chicago TRACON
11:53PM 42.0361 -87.5197 83° East  Level FlightAware Approximate
11:53PM 41.9500 -87.7167 77° East 275 316 7,200  Level Chicago TRACON
11:54PM 42.0481 -87.3876 83° East  Level FlightAware Approximate
11:55PM 42.0669 -87.2571 78° East  Level FlightAware Approximate
11:55PM 41.9625 -87.4558 86° East 316 364 12,400  Level Chicago Center
11:56PM 42.0872 -87.1268 77° East  Level FlightAware Approximate
11:56PM 41.9672 -87.3178 87° East 370 426 13,500  Level Chicago Center
11:57PM 41.9761 -87.1717 85° East 394 453 14,500 780 Climbing Chicago Center
11:58PM 41.9897 -87.0217 83° East 408 470 15,100 293 Climbing Chicago Center
11:59PM 42.0147 -86.8772 77° East 400 460 15,100 -496 Level Chicago Center
12:00AM 42.0392 -86.7342 77° East 396 456 14,100 -1,190 Descending Chicago Center
12:02AM 42.0633 -86.5936 77° East 396 456 12,700 -1,426 Descending Chicago Center
12:03AM 42.0892 -86.4544 76° East 386 444 11,200 -836 Descending Chicago Center
12:04AM 42.1128 -86.3203 77° East 373 429 11,000 -545 Descending Chicago Center
12:05AM 42.1350 -86.2003 76° East 338 389 10,100 -1,488 Descending Chicago Center
12:06AM 42.1553 -86.0953 75° East 299 344 8,000 -2,016 Descending Chicago Center
12:07AM 42.1703 -85.9908 79° East 289 333 6,000 -2,083 Descending Chicago Center
12:08AM 42.1731 -85.8703 88° East 271 312 3,800 -1,488 Descending Chicago Center
12:09AM 42.1739 -85.7747 89° East 263 303 3,000 -541 Descending Chicago Center
12:10AM 42.1744 -85.6997 89° East 217 250 2,700 -298 Descending Chicago Center
12:11AM 42.1750 -85.6347 89° East 183 211 2,400 -446 Descending Chicago Center
12:12AM 42.1814 -85.5828 81° East 159 183 1,800 -492 Descending Chicago Center
12:13AM 42.1994 -85.5489 54° Northeast 142 163 1,400 -248 Descending Chicago Center
12:14AM 42.2342 -85.5342 17° North 140 161 1,300 -100 Descending Chicago Center
12:16AM 42.2333 -85.5500 66° East  Level FlightAware Approximate